createdAt,value
2019-05-12T00:00:15.102Z,0.00
2019-05-12T00:01:15.117Z,0.00
2019-05-12T00:02:15.066Z,0.00
2019-05-12T00:03:15.138Z,0.00
2019-05-12T00:04:15.045Z,0.00
2019-05-12T00:05:15.076Z,0.00
2019-05-12T00:06:15.026Z,0.00
2019-05-12T00:07:15.066Z,0.00
2019-05-12T00:08:15.014Z,0.00
2019-05-12T00:09:15.078Z,0.00
2019-05-12T00:10:15.000Z,0.00
2019-05-12T00:11:15.085Z,0.00
2019-05-12T00:12:14.963Z,0.00
2019-05-12T00:13:14.998Z,0.00
2019-05-12T00:14:14.936Z,0.00
2019-05-12T00:15:15.043Z,0.00
2019-05-12T00:16:14.919Z,0.00
2019-05-12T00:17:14.922Z,0.00
2019-05-12T00:18:14.895Z,0.00
2019-05-12T00:19:14.937Z,0.00
2019-05-12T00:20:14.888Z,0.00
2019-05-12T00:21:14.953Z,0.00
2019-05-12T00:22:14.857Z,0.00
2019-05-12T00:23:24.994Z,0.00
2019-05-12T00:24:15.828Z,0.00
2019-05-12T00:25:20.334Z,0.00
2019-05-12T00:26:14.810Z,0.00
2019-05-12T00:28:14.790Z,0.00
2019-05-12T00:29:14.807Z,0.00
2019-05-12T00:30:14.781Z,0.00
2019-05-12T00:31:14.813Z,0.00
2019-05-12T00:32:14.751Z,0.00
2019-05-12T00:33:17.986Z,0.00
2019-05-12T00:34:14.727Z,0.00
2019-05-12T00:35:14.769Z,0.00
2019-05-12T00:36:14.702Z,0.00
2019-05-12T00:37:14.754Z,0.00
2019-05-12T00:38:14.683Z,0.00
2019-05-12T00:39:14.766Z,0.00
2019-05-12T00:40:14.682Z,0.00
2019-05-12T00:41:14.679Z,0.00
2019-05-12T00:42:14.638Z,0.00
2019-05-12T00:43:14.694Z,0.00
2019-05-12T00:44:14.616Z,0.00
2019-05-12T00:45:14.734Z,0.00
2019-05-12T00:46:14.600Z,0.00
2019-05-12T00:47:14.616Z,0.00
2019-05-12T00:48:14.572Z,0.00
2019-05-12T00:49:14.632Z,0.00
2019-05-12T00:50:14.569Z,0.00
2019-05-12T00:51:14.645Z,0.00
2019-05-12T00:52:14.529Z,0.00
2019-05-12T00:53:14.556Z,0.00
2019-05-12T00:54:14.509Z,0.00
2019-05-12T00:55:14.601Z,0.00
2019-05-12T00:56:14.486Z,0.00
2019-05-12T00:57:14.588Z,0.00
2019-05-12T00:58:14.468Z,0.00
2019-05-12T00:59:14.497Z,0.00
2019-05-12T01:00:14.458Z,0.00
2019-05-12T01:01:14.507Z,0.00
2019-05-12T01:02:14.425Z,0.00
2019-05-12T01:03:14.522Z,0.00
2019-05-12T01:04:14.410Z,0.00
2019-05-12T01:05:14.771Z,0.00
2019-05-12T01:06:14.380Z,0.00
2019-05-12T01:07:14.447Z,0.00
2019-05-12T01:08:14.365Z,0.00
2019-05-12T01:09:14.463Z,0.00
2019-05-12T01:10:14.345Z,0.00
2019-05-12T01:11:14.404Z,0.00
2019-05-12T01:12:14.316Z,0.00
2019-05-12T01:13:14.391Z,0.00
2019-05-12T01:14:14.296Z,0.00
2019-05-12T01:15:14.398Z,0.00
2019-05-12T01:16:14.291Z,0.00
2019-05-12T01:17:14.324Z,0.00
2019-05-12T01:18:14.252Z,0.00
2019-05-12T01:19:14.332Z,0.00
2019-05-12T01:20:14.232Z,0.00
2019-05-12T01:21:14.267Z,0.00
2019-05-12T01:22:14.208Z,0.00
2019-05-12T01:23:14.251Z,0.00
2019-05-12T01:24:14.188Z,0.00
2019-05-12T01:25:14.271Z,0.00
2019-05-12T01:26:14.179Z,0.00
2019-05-12T01:27:14.179Z,0.00
2019-05-12T01:28:14.144Z,0.00
2019-05-12T01:29:14.192Z,0.00
2019-05-12T01:30:14.123Z,0.00
2019-05-12T01:31:14.234Z,0.00
2019-05-12T01:32:14.107Z,0.00
2019-05-12T01:33:14.116Z,0.00
2019-05-12T01:34:14.080Z,0.00
2019-05-12T01:35:14.139Z,0.00
2019-05-12T01:36:14.076Z,0.00
2019-05-12T01:37:14.144Z,0.00
2019-05-12T01:38:14.043Z,0.00
2019-05-12T01:39:14.056Z,0.00
2019-05-12T01:40:14.014Z,0.00
2019-05-12T01:41:14.102Z,0.00
2019-05-12T01:42:13.994Z,0.00
2019-05-12T01:43:14.103Z,0.00
2019-05-12T01:44:13.986Z,0.00
2019-05-12T01:45:13.989Z,0.00
2019-05-12T01:46:13.974Z,0.00
2019-05-12T01:47:14.004Z,0.00
2019-05-12T01:48:13.937Z,0.00
2019-05-12T01:49:14.023Z,0.00
2019-05-12T01:50:13.916Z,0.00
2019-05-12T01:51:13.960Z,0.00
2019-05-12T01:52:13.886Z,0.00
2019-05-12T01:53:13.941Z,0.00
2019-05-12T01:54:15.059Z,0.00
2019-05-12T01:55:13.962Z,0.00
2019-05-12T01:56:13.855Z,0.00
2019-05-12T01:57:19.331Z,0.00
2019-05-12T01:58:13.822Z,0.00
2019-05-12T01:59:15.931Z,0.00
2019-05-12T02:00:13.803Z,0.00
2019-05-12T02:01:21.884Z,0.00
2019-05-12T02:02:13.800Z,0.00
2019-05-12T02:03:13.809Z,0.00
2019-05-12T02:04:13.757Z,0.00
2019-05-12T02:05:20.384Z,0.00
2019-05-12T02:06:13.741Z,0.00
2019-05-12T02:07:13.763Z,0.00
2019-05-12T02:08:13.716Z,0.00
2019-05-12T02:09:13.745Z,0.00
2019-05-12T02:10:13.693Z,0.00
2019-05-12T02:11:13.763Z,0.00
2019-05-12T02:12:13.694Z,0.00
2019-05-12T02:13:13.777Z,0.00
2019-05-12T02:14:13.651Z,0.00
2019-05-12T02:15:13.684Z,0.00
2019-05-12T02:16:13.630Z,0.00
2019-05-12T02:17:13.730Z,0.00
2019-05-12T02:18:13.615Z,0.00
2019-05-12T02:19:13.711Z,0.00
2019-05-12T02:20:13.586Z,0.00
2019-05-12T02:21:13.634Z,0.00
2019-05-12T02:22:13.587Z,0.00
2019-05-12T02:23:13.646Z,0.00
2019-05-12T02:24:24.317Z,0.00
2019-05-12T02:25:14.532Z,0.00
2019-05-12T02:26:13.558Z,0.00
2019-05-12T02:27:13.528Z,0.00
2019-05-12T02:28:13.576Z,0.00
2019-05-12T02:29:13.491Z,0.00
2019-05-12T02:30:13.590Z,0.00
2019-05-12T02:31:13.471Z,0.00
2019-05-12T02:32:13.537Z,0.00
2019-05-12T02:33:15.970Z,0.00
2019-05-12T02:34:15.648Z,0.00
2019-05-12T02:35:16.111Z,0.00
2019-05-12T02:36:15.048Z,0.00
2019-05-12T02:37:15.369Z,0.00
2019-05-12T02:38:14.545Z,0.00
2019-05-12T02:39:15.067Z,0.00
2019-05-12T02:40:15.149Z,0.00
2019-05-12T02:41:15.499Z,0.00
2019-05-12T02:42:15.633Z,0.00
2019-05-12T02:43:15.350Z,0.00
2019-05-12T02:44:14.923Z,0.00
2019-05-12T02:45:15.362Z,0.00
2019-05-12T02:46:15.895Z,0.00
2019-05-12T02:47:16.012Z,0.00
2019-05-12T02:48:14.455Z,0.00
2019-05-12T02:49:15.627Z,0.00
2019-05-12T02:50:14.547Z,0.00
2019-05-12T02:51:15.550Z,0.00
2019-05-12T02:52:15.515Z,0.00
2019-05-12T02:53:14.431Z,0.00
2019-05-12T02:54:14.471Z,0.00
2019-05-12T02:55:15.028Z,0.00
2019-05-12T02:56:15.153Z,0.00
2019-05-12T02:57:14.307Z,0.00
2019-05-12T02:58:15.304Z,0.00
2019-05-12T02:59:15.432Z,0.00
2019-05-12T03:00:16.059Z,0.00
2019-05-12T03:01:15.306Z,0.00
2019-05-12T03:02:14.235Z,0.00
2019-05-12T03:03:14.580Z,0.00
2019-05-12T03:04:14.507Z,0.00
2019-05-12T03:05:14.845Z,0.00
2019-05-12T03:06:15.186Z,0.00
2019-05-12T03:07:15.279Z,0.00
2019-05-12T03:08:15.329Z,0.00
2019-05-12T03:09:15.083Z,0.00
2019-05-12T03:10:14.528Z,0.00
2019-05-12T03:11:14.855Z,0.00
2019-05-12T03:12:14.424Z,0.00
2019-05-12T03:13:14.882Z,0.00
2019-05-12T03:14:15.636Z,0.00
2019-05-12T03:15:15.196Z,0.00
2019-05-12T03:16:14.973Z,0.00
2019-05-12T03:17:15.343Z,0.00
2019-05-12T03:18:14.705Z,0.00
2019-05-12T03:19:14.958Z,0.00
2019-05-12T03:20:15.389Z,0.00
2019-05-12T03:21:15.287Z,0.00
2019-05-12T03:22:14.162Z,0.00
2019-05-12T03:23:15.414Z,0.00
2019-05-12T03:24:17.372Z,0.00
2019-05-12T03:25:20.990Z,0.00
2019-05-12T03:26:15.465Z,0.00
2019-05-12T03:27:14.597Z,5.62
2019-05-12T03:28:15.883Z,5.62
2019-05-12T03:29:14.837Z,5.62
2019-05-12T03:30:18.995Z,5.62
2019-05-12T03:31:22.308Z,5.62
2019-05-12T03:32:17.743Z,5.62
2019-05-12T03:33:19.007Z,5.62
2019-05-12T03:34:18.536Z,11.25
2019-05-12T03:35:20.893Z,11.25
2019-05-12T03:36:17.940Z,11.25
2019-05-12T03:37:17.830Z,11.25
2019-05-12T03:38:14.891Z,11.25
2019-05-12T03:39:15.164Z,16.88
2019-05-12T03:40:14.458Z,16.88
2019-05-12T03:41:14.669Z,16.88
2019-05-12T03:42:14.540Z,16.88
2019-05-12T03:43:14.631Z,22.50
2019-05-12T03:44:15.141Z,22.50
2019-05-12T03:45:15.035Z,22.50
2019-05-12T03:46:15.161Z,22.50
2019-05-12T03:47:14.451Z,28.12
2019-05-12T03:48:14.886Z,28.12
2019-05-12T03:49:15.326Z,28.12
2019-05-12T03:50:14.744Z,33.75
2019-05-12T03:51:15.434Z,33.75
2019-05-12T03:52:15.235Z,33.75
2019-05-12T03:53:15.722Z,33.75
2019-05-12T03:54:15.292Z,39.38
2019-05-12T03:55:30.749Z,39.38
2019-05-12T03:56:15.075Z,39.38
2019-05-12T03:57:14.986Z,45.00
2019-05-12T03:58:15.253Z,45.00
2019-05-12T03:59:14.925Z,50.62
2019-05-12T04:00:15.622Z,50.62
2019-05-12T04:01:15.001Z,50.62
2019-05-12T04:02:15.091Z,56.25
2019-05-12T04:03:15.296Z,56.25
2019-05-12T04:04:15.221Z,61.88
2019-05-12T04:05:15.444Z,61.88
2019-05-12T04:06:15.481Z,67.50
2019-05-12T04:07:15.053Z,67.50
2019-05-12T04:08:15.528Z,67.50
2019-05-12T04:09:15.175Z,73.12
2019-05-12T04:10:15.261Z,73.12
2019-05-12T04:11:14.529Z,73.12
2019-05-12T04:12:14.774Z,73.12
2019-05-12T04:13:15.131Z,73.12
2019-05-12T04:14:14.662Z,78.75
2019-05-12T04:15:15.106Z,78.75
2019-05-12T04:16:12.366Z,78.75
2019-05-12T04:17:14.982Z,84.38
2019-05-12T04:18:15.520Z,84.38
2019-05-12T04:19:14.648Z,90.00
2019-05-12T04:20:15.167Z,90.00
2019-05-12T04:21:15.249Z,90.00
2019-05-12T04:22:15.139Z,95.62
2019-05-12T04:23:14.948Z,95.62
2019-05-12T04:24:14.294Z,101.25
2019-05-12T04:25:14.600Z,101.25
2019-05-12T04:26:16.793Z,106.88
2019-05-12T04:27:15.101Z,106.88
2019-05-12T04:28:14.747Z,112.50
2019-05-12T04:29:15.300Z,112.50
2019-05-12T04:30:14.428Z,112.50
2019-05-12T04:31:15.260Z,118.12
2019-05-12T04:32:14.405Z,118.12
2019-05-12T04:33:15.172Z,118.12
2019-05-12T04:34:17.882Z,123.75
2019-05-12T04:35:14.840Z,129.38
2019-05-12T04:36:14.826Z,129.38
2019-05-12T04:37:14.698Z,135.00
2019-05-12T04:38:14.844Z,140.62
2019-05-12T04:39:14.753Z,140.62
2019-05-12T04:40:14.846Z,157.50
2019-05-12T04:41:14.536Z,174.38
2019-05-12T04:42:14.872Z,180.00
2019-05-12T04:43:14.554Z,196.88
2019-05-12T04:44:15.282Z,196.88
2019-05-12T04:45:15.254Z,196.88
2019-05-12T04:46:14.464Z,202.50
2019-05-12T04:47:14.597Z,208.12
2019-05-12T04:48:15.529Z,213.75
2019-05-12T04:49:15.679Z,219.38
2019-05-12T04:50:15.277Z,225.00
2019-05-12T04:51:15.162Z,230.62
2019-05-12T04:52:15.302Z,236.25
2019-05-12T04:53:14.374Z,236.25
2019-05-12T04:54:14.873Z,247.50
2019-05-12T04:55:14.690Z,247.50
2019-05-12T04:56:19.796Z,247.50
2019-05-12T04:57:14.979Z,253.12
2019-05-12T04:58:15.222Z,258.75
2019-05-12T04:59:15.344Z,258.75
2019-05-12T05:00:15.380Z,264.38
2019-05-12T05:01:15.157Z,270.00
2019-05-12T05:02:15.104Z,270.00
2019-05-12T05:03:14.204Z,275.62
2019-05-12T05:04:11.905Z,275.62
2019-05-12T05:05:14.484Z,270.00
2019-05-12T05:06:14.583Z,270.00
2019-05-12T05:07:14.794Z,275.62
2019-05-12T05:08:20.173Z,270.00
2019-05-12T05:09:14.457Z,270.00
2019-05-12T05:10:14.255Z,270.00
2019-05-12T05:11:14.514Z,275.62
2019-05-12T05:12:14.088Z,281.25
2019-05-12T05:13:11.731Z,281.25
2019-05-12T05:14:14.243Z,292.50
2019-05-12T05:15:14.398Z,303.75
2019-05-12T05:16:14.403Z,315.00
2019-05-12T05:17:11.689Z,331.88
2019-05-12T05:18:13.330Z,348.75
2019-05-12T05:19:13.312Z,348.75
2019-05-12T05:20:13.582Z,337.50
2019-05-12T05:21:13.711Z,326.25
2019-05-12T05:22:13.657Z,320.62
2019-05-12T05:23:13.919Z,320.62
2019-05-12T05:24:14.038Z,320.62
2019-05-12T05:25:11.615Z,315.00
2019-05-12T05:26:22.199Z,315.00
2019-05-12T05:27:13.302Z,320.62
2019-05-12T05:28:11.628Z,320.62
2019-05-12T05:29:13.560Z,326.25
2019-05-12T05:30:13.805Z,326.25
2019-05-12T05:31:13.888Z,331.88
2019-05-12T05:32:13.938Z,343.12
2019-05-12T05:33:11.517Z,348.75
2019-05-12T05:34:11.564Z,360.00
2019-05-12T05:35:13.255Z,376.88
2019-05-12T05:36:15.288Z,393.75
2019-05-12T05:37:14.515Z,405.00
2019-05-12T05:38:19.229Z,410.62
2019-05-12T05:39:13.926Z,427.50
2019-05-12T05:40:13.895Z,421.88
2019-05-12T05:41:13.409Z,427.50
2019-05-12T05:42:13.506Z,461.25
2019-05-12T05:43:12.957Z,478.12
2019-05-12T05:44:13.887Z,298.12
2019-05-12T05:45:21.356Z,247.50
2019-05-12T05:46:13.809Z,410.62
2019-05-12T05:47:13.758Z,433.12
2019-05-12T05:48:13.500Z,421.88
2019-05-12T05:49:13.329Z,410.62
2019-05-12T05:50:13.392Z,405.00
2019-05-12T05:51:13.755Z,405.00
2019-05-12T05:52:13.629Z,405.00
2019-05-12T05:53:20.303Z,405.00
2019-05-12T05:54:13.609Z,405.00
2019-05-12T05:55:18.112Z,410.62
2019-05-12T05:56:14.252Z,410.62
2019-05-12T05:57:20.053Z,421.88
2019-05-12T05:58:12.236Z,416.25
2019-05-12T05:59:11.330Z,416.25
2019-05-12T06:00:17.294Z,416.25
2019-05-12T06:01:13.753Z,421.88
2019-05-12T06:02:13.764Z,421.88
2019-05-12T06:03:14.903Z,421.88
2019-05-12T06:04:14.065Z,421.88
2019-05-12T06:05:11.269Z,427.50
2019-05-12T06:06:14.640Z,421.88
2019-05-12T06:07:11.176Z,421.88
2019-05-12T06:08:18.658Z,421.88
2019-05-12T06:09:14.156Z,421.88
2019-05-12T06:10:11.198Z,421.88
2019-05-12T06:11:14.691Z,421.88
2019-05-12T06:12:13.397Z,427.50
2019-05-12T06:13:11.115Z,421.88
2019-05-12T06:14:12.804Z,421.88
2019-05-12T06:15:13.404Z,421.88
2019-05-12T06:16:19.852Z,427.50
2019-05-12T06:17:14.486Z,433.12
2019-05-12T06:18:13.407Z,427.50
2019-05-12T06:19:11.001Z,433.12
2019-05-12T06:20:13.301Z,433.12
2019-05-12T06:21:10.993Z,433.12
2019-05-12T06:22:15.068Z,433.12
2019-05-12T06:23:14.524Z,438.75
2019-05-12T06:24:17.881Z,438.75
2019-05-12T06:25:15.704Z,438.75
2019-05-12T06:26:11.031Z,444.38
2019-05-12T06:27:18.652Z,444.38
2019-05-12T06:28:11.903Z,450.00
2019-05-12T06:29:11.415Z,455.62
2019-05-12T06:30:14.570Z,455.62
2019-05-12T06:31:10.963Z,455.62
2019-05-12T06:32:11.145Z,461.25
2019-05-12T06:33:10.950Z,461.25
2019-05-12T06:34:15.337Z,455.62
2019-05-12T06:35:11.827Z,455.62
2019-05-12T06:36:22.278Z,461.25
2019-05-12T06:37:16.578Z,461.25
2019-05-12T06:38:19.889Z,461.25
2019-05-12T06:39:19.097Z,461.25
2019-05-12T06:40:13.988Z,461.25
2019-05-12T06:41:12.707Z,466.88
2019-05-12T06:42:15.353Z,466.88
2019-05-12T06:43:13.951Z,472.50
2019-05-12T06:44:14.902Z,472.50
2019-05-12T06:45:13.971Z,478.12
2019-05-12T06:46:11.728Z,472.50
2019-05-12T06:47:11.709Z,478.12
2019-05-12T06:48:10.740Z,472.50
2019-05-12T06:49:15.374Z,472.50
2019-05-12T06:50:14.317Z,472.50
2019-05-12T06:51:15.462Z,472.50
2019-05-12T06:52:11.735Z,472.50
2019-05-12T06:53:10.627Z,483.75
2019-05-12T06:54:12.676Z,478.12
2019-05-12T06:55:10.608Z,478.12
2019-05-12T06:56:15.284Z,489.38
2019-05-12T06:57:22.275Z,523.12
2019-05-12T06:58:13.755Z,551.25
2019-05-12T06:59:12.338Z,551.25
2019-05-12T07:00:10.551Z,528.75
2019-05-12T07:01:16.710Z,511.88
2019-05-12T07:02:13.717Z,500.62
2019-05-12T07:03:10.536Z,495.00
2019-05-12T07:04:10.518Z,489.38
2019-05-12T07:05:10.550Z,489.38
2019-05-12T07:06:17.923Z,489.38
2019-05-12T07:07:11.493Z,489.38
2019-05-12T07:08:10.570Z,489.38
2019-05-12T07:10:13.130Z,489.38
2019-05-12T07:11:14.103Z,483.75
2019-05-12T07:12:10.526Z,489.38
2019-05-12T07:13:14.797Z,506.25
2019-05-12T07:14:18.844Z,500.62
2019-05-12T07:15:11.431Z,466.88
2019-05-12T07:16:16.623Z,393.75
2019-05-12T07:17:11.377Z,416.25
2019-05-12T07:18:10.451Z,399.38
2019-05-12T07:19:17.299Z,523.12
2019-05-12T07:20:11.331Z,405.00
2019-05-12T07:21:19.825Z,523.12
2019-05-12T07:22:19.975Z,337.50
2019-05-12T07:23:11.301Z,517.50
2019-05-12T07:24:34.148Z,534.38
2019-05-12T07:25:10.280Z,528.75
2019-05-12T07:26:14.106Z,371.25
2019-05-12T07:27:11.267Z,326.25
2019-05-12T07:28:10.300Z,343.12
2019-05-12T07:29:10.232Z,545.62
2019-05-12T07:30:10.311Z,573.75
2019-05-12T07:31:10.215Z,590.62
2019-05-12T07:32:16.594Z,624.38
2019-05-12T07:33:11.204Z,663.75
2019-05-12T07:34:10.184Z,534.38
2019-05-12T07:35:10.165Z,500.62
2019-05-12T07:36:10.251Z,607.50
2019-05-12T07:37:10.151Z,703.12
2019-05-12T07:38:12.147Z,573.75
2019-05-12T07:39:13.442Z,765.00
2019-05-12T07:40:10.176Z,607.50
2019-05-12T07:41:10.942Z,545.62
2019-05-12T07:42:10.193Z,500.62
2019-05-12T07:43:15.454Z,472.50
2019-05-12T07:44:11.065Z,652.50
2019-05-12T07:45:11.423Z,444.38
2019-05-12T07:46:13.226Z,444.38
2019-05-12T07:47:10.124Z,427.50
2019-05-12T07:48:10.573Z,433.12
2019-05-12T07:49:10.035Z,438.75
2019-05-12T07:50:15.442Z,455.62
2019-05-12T07:51:10.988Z,455.62
2019-05-12T07:52:11.082Z,444.38
2019-05-12T07:53:09.980Z,455.62
2019-05-12T07:54:10.071Z,461.25
2019-05-12T07:55:09.944Z,466.88
2019-05-12T07:56:09.987Z,680.62
2019-05-12T07:57:12.489Z,720.00
2019-05-12T07:58:15.574Z,753.75
2019-05-12T07:59:13.432Z,798.75
2019-05-12T08:00:11.351Z,832.50
2019-05-12T08:01:10.879Z,849.38
2019-05-12T08:02:09.933Z,810.00
2019-05-12T08:03:16.179Z,551.25
2019-05-12T08:04:10.855Z,540.00
2019-05-12T08:05:11.031Z,776.25
2019-05-12T08:06:10.824Z,810.00
2019-05-12T08:07:09.819Z,635.62
2019-05-12T08:08:11.040Z,821.25
2019-05-12T08:09:13.572Z,815.62
2019-05-12T08:10:15.933Z,624.38
2019-05-12T08:11:10.771Z,534.38
2019-05-12T08:12:15.272Z,528.75
2019-05-12T08:13:10.767Z,517.50
2019-05-12T08:14:13.787Z,545.62
2019-05-12T08:15:10.732Z,551.25
2019-05-12T08:16:09.830Z,624.38
2019-05-12T08:17:12.090Z,781.88
2019-05-12T08:18:10.783Z,540.00
2019-05-12T08:19:17.210Z,523.12
2019-05-12T08:20:10.671Z,781.88
2019-05-12T08:21:09.739Z,916.88
2019-05-12T08:22:09.659Z,1012.50
2019-05-12T08:23:10.701Z,1091.25
2019-05-12T08:24:09.643Z,1119.38
2019-05-12T08:25:09.665Z,1125.00
2019-05-12T08:26:16.182Z,1164.38
2019-05-12T08:27:10.611Z,1226.25
2019-05-12T08:28:15.585Z,1333.12
2019-05-12T08:29:15.818Z,1473.75
2019-05-12T08:30:10.572Z,1687.50
2019-05-12T08:31:09.604Z,1895.62
2019-05-12T08:32:14.800Z,1974.38
2019-05-12T08:33:10.644Z,1839.38
2019-05-12T08:34:09.533Z,596.25
2019-05-12T08:35:09.533Z,568.12
2019-05-12T08:36:11.672Z,579.38
2019-05-12T08:37:09.542Z,1051.88
2019-05-12T08:38:09.478Z,877.50
2019-05-12T08:39:11.802Z,967.50
2019-05-12T08:40:10.451Z,646.88
2019-05-12T08:41:09.476Z,607.50
2019-05-12T08:42:09.430Z,646.88
2019-05-12T08:43:10.767Z,669.38
2019-05-12T08:44:09.436Z,742.50
2019-05-12T08:45:15.148Z,1147.50
2019-05-12T08:46:12.802Z,1091.25
2019-05-12T08:47:12.149Z,787.50
2019-05-12T08:48:16.029Z,978.75
2019-05-12T08:49:10.378Z,691.88
2019-05-12T08:50:10.455Z,607.50
2019-05-12T08:51:13.973Z,630.00
2019-05-12T08:52:11.391Z,753.75
2019-05-12T08:53:14.469Z,658.12
2019-05-12T08:54:10.323Z,652.50
2019-05-12T08:56:13.058Z,961.88
2019-05-12T08:57:10.265Z,967.50
2019-05-12T08:58:09.279Z,748.12
2019-05-12T08:59:14.370Z,618.75
2019-05-12T09:00:10.323Z,596.25
2019-05-12T09:01:09.230Z,781.88
2019-05-12T09:02:10.780Z,540.00
2019-05-12T09:03:09.217Z,523.12
2019-05-12T09:04:14.641Z,506.25
2019-05-12T09:05:10.200Z,483.75
2019-05-12T09:06:14.415Z,489.38
2019-05-12T09:07:10.165Z,511.88
2019-05-12T09:08:09.247Z,528.75
2019-05-12T09:09:09.163Z,585.00
2019-05-12T09:10:09.163Z,613.12
2019-05-12T09:11:09.120Z,596.25
2019-05-12T09:12:09.174Z,618.75
2019-05-12T09:13:09.094Z,961.88
2019-05-12T09:14:09.109Z,1018.12
2019-05-12T09:15:09.074Z,1051.88
2019-05-12T09:16:09.796Z,973.12
2019-05-12T09:17:09.047Z,691.88
2019-05-12T09:18:09.113Z,618.75
2019-05-12T09:19:10.087Z,556.88
2019-05-12T09:20:10.049Z,517.50
2019-05-12T09:21:09.002Z,478.12
2019-05-12T09:22:16.531Z,461.25
2019-05-12T09:23:09.985Z,461.25
2019-05-12T09:24:13.688Z,472.50
2019-05-12T09:25:09.958Z,495.00
2019-05-12T09:26:09.068Z,534.38
2019-05-12T09:27:09.128Z,573.75
2019-05-12T09:28:08.970Z,613.12
2019-05-12T09:29:08.969Z,658.12
2019-05-12T09:30:09.831Z,815.62
2019-05-12T09:31:08.900Z,708.75
2019-05-12T09:32:09.682Z,675.00
2019-05-12T09:33:08.874Z,708.75
2019-05-12T09:34:11.591Z,669.38
2019-05-12T09:35:08.872Z,1040.62
2019-05-12T09:36:11.279Z,1102.50
2019-05-12T09:37:09.824Z,1254.38
2019-05-12T09:38:11.412Z,1496.25
2019-05-12T09:39:09.807Z,1625.62
2019-05-12T09:40:10.825Z,1884.38
2019-05-12T09:41:08.782Z,1366.88
2019-05-12T09:42:09.783Z,1991.25
2019-05-12T09:43:10.638Z,1867.50
2019-05-12T09:44:08.773Z,2131.88
2019-05-12T09:45:10.481Z,703.12
2019-05-12T09:46:08.787Z,2328.75
2019-05-12T09:47:21.792Z,2199.38
2019-05-12T09:48:09.716Z,2176.88
2019-05-12T09:49:08.809Z,2058.75
2019-05-12T09:50:09.791Z,804.38
2019-05-12T09:51:09.742Z,748.12
2019-05-12T09:52:13.962Z,2182.50
2019-05-12T09:53:11.506Z,1237.50
2019-05-12T09:54:08.742Z,596.25
2019-05-12T09:55:08.643Z,500.62
2019-05-12T09:56:08.650Z,455.62
2019-05-12T09:57:08.609Z,433.12
2019-05-12T09:58:14.144Z,421.88
2019-05-12T09:59:17.916Z,416.25
2019-05-12T10:00:09.586Z,416.25
2019-05-12T10:01:08.601Z,427.50
2019-05-12T10:02:10.443Z,444.38
2019-05-12T10:03:09.621Z,444.38
2019-05-12T10:04:10.447Z,450.00
2019-05-12T10:05:09.567Z,455.62
2019-05-12T10:06:11.469Z,466.88
2019-05-12T10:07:09.501Z,478.12
2019-05-12T10:08:08.529Z,495.00
2019-05-12T10:09:08.930Z,618.75
2019-05-12T10:10:09.504Z,1299.38
2019-05-12T10:11:10.426Z,2441.25
2019-05-12T10:12:09.479Z,2407.50
2019-05-12T10:13:08.432Z,2469.38
2019-05-12T10:14:10.756Z,2469.38
2019-05-12T10:15:08.427Z,2385.00
2019-05-12T10:16:08.940Z,2407.50
2019-05-12T10:17:08.391Z,2469.38
2019-05-12T10:18:10.973Z,2553.75
2019-05-12T10:19:08.365Z,2497.50
2019-05-12T10:20:08.409Z,2469.38
2019-05-12T10:21:13.382Z,2486.25
2019-05-12T10:22:29.974Z,2531.25
2019-05-12T10:23:10.151Z,2503.12
2019-05-12T10:24:08.330Z,2553.75
2019-05-12T10:25:08.311Z,2638.12
2019-05-12T10:26:11.595Z,2587.50
2019-05-12T10:27:08.281Z,2570.62
2019-05-12T10:28:13.028Z,2587.50
2019-05-12T10:29:17.633Z,2643.75
2019-05-12T10:30:12.244Z,2660.62
2019-05-12T10:31:08.305Z,2756.25
2019-05-12T10:32:10.366Z,2913.75
2019-05-12T10:33:08.291Z,2964.38
2019-05-12T10:34:08.203Z,2919.38
2019-05-12T10:35:12.662Z,1063.12
2019-05-12T10:36:09.200Z,1012.50
2019-05-12T10:37:08.216Z,720.00
2019-05-12T10:38:10.696Z,573.75
2019-05-12T10:39:08.231Z,506.25
2019-05-12T10:40:08.134Z,461.25
2019-05-12T10:41:08.169Z,427.50
2019-05-12T10:42:08.111Z,410.62
2019-05-12T10:43:08.155Z,416.25
2019-05-12T10:44:08.090Z,410.62
2019-05-12T10:45:10.830Z,416.25
2019-05-12T10:46:09.081Z,421.88
2019-05-12T10:47:08.079Z,433.12
2019-05-12T10:48:08.048Z,444.38
2019-05-12T10:49:08.092Z,461.25
2019-05-12T10:50:08.028Z,478.12
2019-05-12T10:51:08.144Z,500.62
2019-05-12T10:52:08.008Z,523.12
2019-05-12T10:53:09.791Z,551.25
2019-05-12T10:54:13.107Z,579.38
2019-05-12T10:55:09.054Z,607.50
2019-05-12T10:56:08.257Z,641.25
2019-05-12T10:57:08.047Z,680.62
2019-05-12T10:58:07.942Z,793.12
2019-05-12T10:59:07.959Z,978.75
2019-05-12T11:00:07.917Z,894.38
2019-05-12T11:01:08.691Z,956.25
2019-05-12T11:02:07.914Z,950.62
2019-05-12T11:03:12.209Z,2109.38
2019-05-12T11:04:07.872Z,2891.25
2019-05-12T11:05:21.121Z,3178.12
2019-05-12T11:06:08.858Z,3296.25
2019-05-12T11:07:09.890Z,3346.88
2019-05-12T11:08:10.978Z,3346.88
2019-05-12T11:09:07.924Z,3403.12
2019-05-12T11:10:15.470Z,1265.62
2019-05-12T11:11:08.797Z,1001.25
2019-05-12T11:12:07.810Z,832.50
2019-05-12T11:13:09.872Z,748.12
2019-05-12T11:14:07.856Z,714.38
2019-05-12T11:15:08.514Z,691.88
2019-05-12T11:16:07.767Z,703.12
2019-05-12T11:17:09.460Z,821.25
2019-05-12T11:18:07.781Z,686.25
2019-05-12T11:19:10.466Z,697.50
2019-05-12T11:20:07.797Z,736.88
2019-05-12T11:21:07.696Z,945.00
2019-05-12T11:22:08.244Z,652.50
2019-05-12T11:23:07.667Z,585.00
2019-05-12T11:24:07.719Z,551.25
2019-05-12T11:25:07.669Z,511.88
2019-05-12T11:26:07.735Z,489.38
2019-05-12T11:27:07.634Z,472.50
2019-05-12T11:28:07.643Z,466.88
2019-05-12T11:29:07.603Z,472.50
2019-05-12T11:30:07.656Z,483.75
2019-05-12T11:31:07.629Z,489.38
2019-05-12T11:32:07.603Z,500.62
2019-05-12T11:33:07.557Z,511.88
2019-05-12T11:34:07.584Z,528.75
2019-05-12T11:35:07.537Z,545.62
2019-05-12T11:36:07.595Z,579.38
2019-05-12T11:37:07.527Z,601.88
2019-05-12T11:38:07.609Z,635.62
2019-05-12T11:39:07.490Z,658.12
2019-05-12T11:40:07.520Z,691.88
2019-05-12T11:41:10.147Z,748.12
2019-05-12T11:42:08.591Z,950.62
2019-05-12T11:43:07.447Z,3211.88
2019-05-12T11:44:07.548Z,3172.50
2019-05-12T11:45:07.430Z,3116.25
2019-05-12T11:46:07.467Z,1395.00
2019-05-12T11:47:07.409Z,3133.12
2019-05-12T11:48:10.133Z,1091.25
2019-05-12T11:49:09.504Z,1023.75
2019-05-12T11:50:14.347Z,877.50
2019-05-12T11:51:07.358Z,888.75
2019-05-12T11:52:18.440Z,950.62
2019-05-12T11:53:07.365Z,1209.38
2019-05-12T11:54:10.841Z,2615.62
2019-05-12T11:55:07.314Z,3481.88
2019-05-12T11:56:07.913Z,1901.25
2019-05-12T11:57:07.298Z,2970.00
2019-05-12T11:58:11.373Z,2193.75
2019-05-12T11:59:07.274Z,2126.25
2019-05-12T12:00:07.351Z,2570.62
2019-05-12T12:01:08.363Z,1046.25
2019-05-12T12:02:07.264Z,2581.88
2019-05-12T12:03:12.681Z,3285.00
2019-05-12T12:04:08.299Z,3178.12
2019-05-12T12:05:07.253Z,3043.12
2019-05-12T12:06:07.292Z,3048.75
2019-05-12T12:07:07.187Z,3195.00
2019-05-12T12:08:07.242Z,3307.50
2019-05-12T12:09:09.074Z,3330.00
2019-05-12T12:10:08.239Z,725.62
2019-05-12T12:11:10.520Z,753.75
2019-05-12T12:12:08.201Z,883.12
2019-05-12T12:13:07.165Z,916.88
2019-05-12T12:14:10.488Z,1501.88
2019-05-12T12:15:07.146Z,900.00
2019-05-12T12:16:11.137Z,753.75
2019-05-12T12:17:07.159Z,686.25
2019-05-12T12:18:13.097Z,618.75
2019-05-12T12:19:08.124Z,568.12
2019-05-12T12:20:07.046Z,551.25
2019-05-12T12:21:07.906Z,540.00
2019-05-12T12:22:07.019Z,545.62
2019-05-12T12:23:10.981Z,545.62
2019-05-12T12:24:07.004Z,545.62
2019-05-12T12:25:10.892Z,545.62
2019-05-12T12:26:07.976Z,523.12
2019-05-12T12:27:07.045Z,506.25
2019-05-12T12:28:07.055Z,495.00
2019-05-12T12:29:07.039Z,500.62
2019-05-12T12:30:18.613Z,540.00
2019-05-12T12:31:07.981Z,590.62
2019-05-12T12:32:10.000Z,663.75
2019-05-12T12:33:07.910Z,731.25
2019-05-12T12:34:07.993Z,798.75
2019-05-12T12:35:10.990Z,855.00
2019-05-12T12:36:14.867Z,905.62
2019-05-12T12:37:06.852Z,916.88
2019-05-12T12:38:08.869Z,911.25
2019-05-12T12:39:06.831Z,883.12
2019-05-12T12:40:08.863Z,826.88
2019-05-12T12:41:06.812Z,798.75
2019-05-12T12:42:06.803Z,765.00
2019-05-12T12:43:06.832Z,663.75